createdAt,value
2023-04-20T00:02:36.000Z,49.78
2023-04-20T00:07:35.000Z,49.57
2023-04-20T00:12:35.000Z,48.86
2023-04-20T00:17:36.000Z,49.83
2023-04-20T00:22:35.000Z,50.74
2023-04-20T00:27:35.000Z,51.82
2023-04-20T00:32:36.000Z,51.96
2023-04-20T00:37:35.000Z,51.26
2023-04-20T00:42:35.000Z,50.77
2023-04-20T00:47:36.000Z,50.98
2023-04-20T00:52:35.000Z,51.92
2023-04-20T00:57:35.000Z,51.92
2023-04-20T01:02:36.000Z,52.9
2023-04-20T01:07:35.000Z,54.61
2023-04-20T01:12:35.000Z,58.8
2023-04-20T01:17:35.000Z,65.31
2023-04-20T01:22:35.000Z,71.7
2023-04-20T01:27:35.000Z,72.98
2023-04-20T01:32:35.000Z,76.23
2023-04-20T01:37:35.000Z,88.54
2023-04-20T01:42:35.000Z,87.35
2023-04-20T01:47:35.000Z,90.41
2023-04-20T01:52:36.000Z,95.74
2023-04-20T01:57:35.000Z,99.07
2023-04-20T02:02:36.000Z,97.05
2023-04-20T02:07:35.000Z,97.05
2023-04-20T02:12:36.000Z,93.7
2023-04-20T02:17:36.000Z,87.02
2023-04-20T02:22:36.000Z,83.01
2023-04-20T02:27:36.000Z,80.78
2023-04-20T02:32:35.000Z,78.41
2023-04-20T02:37:36.000Z,72.11
2023-04-20T02:42:35.000Z,71.89
2023-04-20T02:47:36.000Z,69.78
2023-04-20T02:52:36.000Z,70.67
2023-04-20T02:57:36.000Z,77.19
2023-04-20T03:02:36.000Z,81.93
2023-04-20T03:07:36.000Z,92.54
2023-04-20T03:12:36.000Z,94.51
2023-04-20T03:17:36.000Z,90.42
2023-04-20T03:22:36.000Z,90.42
2023-04-20T03:27:35.000Z,86.85
2023-04-20T03:32:36.000Z,81.8
2023-04-20T03:37:36.000Z,79.8
2023-04-20T03:42:35.000Z,75.67
2023-04-20T03:47:36.000Z,68.08
2023-04-20T03:52:35.000Z,61.22
2023-04-20T03:57:36.000Z,56.66
2023-04-20T04:02:35.000Z,57.38
2023-04-20T04:07:36.000Z,57.37
2023-04-20T04:12:35.000Z,57.89
2023-04-20T04:17:35.000Z,57.28
2023-04-20T04:22:37.000Z,56.92
2023-04-20T04:27:36.000Z,54.89
2023-04-20T04:32:35.000Z,53.77
2023-04-20T04:37:35.000Z,53.77
2023-04-20T04:42:36.000Z,52.13
2023-04-20T04:47:36.000Z,49.9
2023-04-20T04:52:35.000Z,47.39
2023-04-20T04:57:36.000Z,45.76
2023-04-20T05:02:36.000Z,46.24
2023-04-20T05:07:36.000Z,45.62
2023-04-20T05:12:35.000Z,45.15
2023-04-20T05:17:36.000Z,44.79
2023-04-20T05:22:36.000Z,43.24
2023-04-20T05:27:35.000Z,41.04
2023-04-20T05:32:35.000Z,36.96
2023-04-20T05:37:36.000Z,32.79
2023-04-20T05:42:36.000Z,28.91
2023-04-20T05:47:36.000Z,25.42
2023-04-20T05:52:35.000Z,25.42
2023-04-20T05:57:35.000Z,22.31
2023-04-20T06:02:36.000Z,20.7
2023-04-20T06:07:35.000Z,19.21
2023-04-20T06:12:36.000Z,19.16
2023-04-20T06:17:36.000Z,19.55
2023-04-20T06:22:36.000Z,19.76
2023-04-20T06:27:36.000Z,19.17
2023-04-20T06:32:36.000Z,18.28
2023-04-20T06:37:35.000Z,18.21
2023-04-20T06:42:36.000Z,17.78
2023-04-20T06:47:36.000Z,17.78
2023-04-20T06:52:36.000Z,16.75
2023-04-20T06:57:36.000Z,15.1
2023-04-20T07:02:35.000Z,14.64
2023-04-20T07:07:36.000Z,14.2
2023-04-20T07:12:36.000Z,14.16
2023-04-20T07:17:37.000Z,14.13
2023-04-20T07:22:35.000Z,13.33
2023-04-20T07:27:36.000Z,12.65
2023-04-20T07:32:36.000Z,12.34
2023-04-20T07:37:37.000Z,12.05
2023-04-20T07:42:36.000Z,11.33
2023-04-20T07:47:35.000Z,11.52
2023-04-20T07:52:36.000Z,11.22
2023-04-20T07:57:35.000Z,10.59
2023-04-20T08:02:35.000Z,10.59
2023-04-20T08:07:36.000Z,11.27
2023-04-20T08:12:36.000Z,10.69
2023-04-20T08:17:35.000Z,10.95
2023-04-20T08:22:36.000Z,11.67
2023-04-20T08:27:36.000Z,13.01
2023-04-20T08:32:37.000Z,14.09
2023-04-20T08:37:35.000Z,13.14
2023-04-20T08:42:36.000Z,12.24
2023-04-20T08:47:36.000Z,10.82
2023-04-20T08:52:36.000Z,10.76
2023-04-20T08:57:36.000Z,13.98
2023-04-20T09:02:36.000Z,16.84
2023-04-20T09:07:35.000Z,18.67
2023-04-20T09:12:36.000Z,19.9
2023-04-20T09:17:36.000Z,19.9
2023-04-20T09:22:35.000Z,19.57
2023-04-20T09:27:35.000Z,20.09
2023-04-20T09:32:36.000Z,20
2023-04-20T09:37:35.000Z,20.69
2023-04-20T09:42:35.000Z,21.49
2023-04-20T09:47:35.000Z,21.78
2023-04-20T09:52:36.000Z,21.77
2023-04-20T09:57:36.000Z,21.29
2023-04-20T10:02:36.000Z,21.08
2023-04-20T10:07:36.000Z,20.15
2023-04-20T10:12:36.000Z,19.65
2023-04-20T10:17:38.000Z,20.7
2023-04-20T10:22:35.000Z,20.47
2023-04-20T10:27:36.000Z,20.38
2023-04-20T10:32:36.000Z,20.38
2023-04-20T10:37:36.000Z,21.26
2023-04-20T10:42:35.000Z,21.99
2023-04-20T10:47:38.000Z,22.44
2023-04-20T10:52:36.000Z,23.26
2023-04-20T10:57:36.000Z,22.51
2023-04-20T11:02:36.000Z,22.64
2023-04-20T11:07:36.000Z,23.55
2023-04-20T11:12:35.000Z,23.14
2023-04-20T11:17:35.000Z,23.14
2023-04-20T11:22:36.000Z,23.4
2023-04-20T11:27:35.000Z,23.46
2023-04-20T11:32:36.000Z,23.64
2023-04-20T11:37:43.000Z,24.39
2023-04-20T11:42:35.000Z,24.39
2023-04-20T11:47:35.000Z,24.1
2023-04-20T11:52:35.000Z,24.05
2023-04-20T11:57:36.000Z,23.71
2023-04-20T12:02:36.000Z,23.73
2023-04-20T12:07:36.000Z,22.64
2023-04-20T12:12:36.000Z,22.96
2023-04-20T12:17:35.000Z,24.64
2023-04-20T12:22:35.000Z,25.47
2023-04-20T12:27:35.000Z,25.36
2023-04-20T12:32:36.000Z,26.57
2023-04-20T12:37:35.000Z,26.58
2023-04-20T12:42:35.000Z,26.77
2023-04-20T12:47:36.000Z,26.65
2023-04-20T12:52:36.000Z,26.65
2023-04-20T12:57:35.000Z,26.49
2023-04-20T13:02:35.000Z,26.4
2023-04-20T13:07:36.000Z,26.42
2023-04-20T13:12:35.000Z,27.17
2023-04-20T13:17:35.000Z,27.41
2023-04-20T13:22:36.000Z,27.64
2023-04-20T13:27:36.000Z,27.65
2023-04-20T13:32:36.000Z,26.9
2023-04-20T13:37:35.000Z,26.58
2023-04-20T13:42:35.000Z,27.53
2023-04-20T13:47:36.000Z,29.67
2023-04-20T13:52:36.000Z,29.89
2023-04-20T13:57:36.000Z,30.04
2023-04-20T14:02:35.000Z,31.08
2023-04-20T14:07:35.000Z,31.08
2023-04-20T14:12:36.000Z,31.75
2023-04-20T14:17:36.000Z,31.66
2023-04-20T14:22:35.000Z,31.48
2023-04-20T14:27:36.000Z,31.67
2023-04-20T14:32:35.000Z,31.89
2023-04-20T14:37:35.000Z,31.42
2023-04-20T14:42:35.000Z,31.47
2023-04-20T14:47:36.000Z,31.56
2023-04-20T14:52:35.000Z,31.59
2023-04-20T14:57:35.000Z,31.45
2023-04-20T15:02:36.000Z,31.14
2023-04-20T15:07:35.000Z,31.45
2023-04-20T15:12:36.000Z,31.56
2023-04-20T15:17:35.000Z,31.56
2023-04-20T15:22:35.000Z,31.65
2023-04-20T15:27:35.000Z,31.48
2023-04-20T15:32:36.000Z,31.69
2023-04-20T15:37:35.000Z,32.17
2023-04-20T15:42:36.000Z,32.44
2023-04-20T15:47:36.000Z,32.78
2023-04-20T15:52:36.000Z,32.9
2023-04-20T15:57:36.000Z,33.01
2023-04-20T16:02:35.000Z,33.19
2023-04-20T16:07:36.000Z,33.33
2023-04-20T16:12:35.000Z,33.4
2023-04-20T16:17:35.000Z,33.31
2023-04-20T16:22:35.000Z,33.45
2023-04-20T16:27:35.000Z,33.45
2023-04-20T16:32:35.000Z,33.49
2023-04-20T16:37:36.000Z,33.57
2023-04-20T16:42:36.000Z,33.61
2023-04-20T16:47:35.000Z,33.86
2023-04-20T16:52:35.000Z,33.87
2023-04-20T16:57:35.000Z,34.34
2023-04-20T17:02:36.000Z,35.11
2023-04-20T17:07:35.000Z,36.18
2023-04-20T17:12:36.000Z,36.93
2023-04-20T17:17:36.000Z,37.66
2023-04-20T17:22:36.000Z,38.52
2023-04-20T17:27:35.000Z,38.91
2023-04-20T17:32:35.000Z,39.44
2023-04-20T17:37:36.000Z,40.15
2023-04-20T17:42:35.000Z,40.15
2023-04-20T17:47:36.000Z,40.53
2023-04-20T17:52:35.000Z,40.77
2023-04-20T17:57:35.000Z,41.43
2023-04-20T18:02:36.000Z,41.92
2023-04-20T18:07:35.000Z,42.42
2023-04-20T18:12:35.000Z,42.85
2023-04-20T18:17:35.000Z,43.48
2023-04-20T18:22:36.000Z,43.85
2023-04-20T18:27:35.000Z,44.03
2023-04-20T18:32:36.000Z,44.29
2023-04-20T18:37:35.000Z,44.6
2023-04-20T18:42:36.000Z,44.85
2023-04-20T18:47:36.000Z,44.8
2023-04-20T18:52:36.000Z,44.8
2023-04-20T18:57:36.000Z,45
2023-04-20T19:02:36.000Z,45.26
2023-04-20T19:07:35.000Z,45.6
2023-04-20T19:12:35.000Z,45.71
2023-04-20T19:17:35.000Z,46.13
2023-04-20T19:22:35.000Z,45.88
2023-04-20T19:27:35.000Z,45.94
2023-04-20T19:32:36.000Z,46.24
2023-04-20T19:37:35.000Z,46.91
2023-04-20T19:42:36.000Z,47.76
2023-04-20T19:47:36.000Z,48.05
2023-04-20T19:52:35.000Z,48.21
2023-04-20T19:57:36.000Z,49.4
2023-04-20T20:02:37.000Z,52.02
2023-04-20T20:07:36.000Z,52.02
2023-04-20T20:12:35.000Z,54.86
2023-04-20T20:17:35.000Z,53.47
2023-04-20T20:22:35.000Z,50.64
2023-04-20T20:27:35.000Z,49.16
2023-04-20T20:32:36.000Z,48.18
2023-04-20T20:37:36.000Z,46.85
2023-04-20T20:42:35.000Z,47.14
2023-04-20T20:47:35.000Z,45.55
2023-04-20T20:52:36.000Z,44.93
2023-04-20T20:57:35.000Z,43.68
2023-04-20T21:02:35.000Z,43.09
2023-04-20T21:07:36.000Z,43.18
2023-04-20T21:12:35.000Z,42.9
2023-04-20T21:17:36.000Z,42.9
2023-04-20T21:22:35.000Z,42.8
2023-04-20T21:27:35.000Z,42.9
2023-04-20T21:32:36.000Z,42.85
2023-04-20T21:37:36.000Z,43.39
2023-04-20T21:42:36.000Z,44.48
2023-04-20T21:47:36.000Z,45.19
2023-04-20T21:52:35.000Z,45.54
2023-04-20T21:57:35.000Z,46.39
2023-04-20T22:02:36.000Z,46.32
2023-04-20T22:07:36.000Z,47.04
2023-04-20T22:12:49.000Z,49.34
2023-04-20T22:17:34.000Z,50
2023-04-20T22:22:35.000Z,49.93
2023-04-20T22:27:35.000Z,52.08
2023-04-20T22:32:35.000Z,52.08
2023-04-20T22:37:36.000Z,56.67
2023-04-20T22:42:35.000Z,57.55
2023-04-20T22:47:35.000Z,56.26
2023-04-20T22:52:35.000Z,56.24
2023-04-20T22:57:36.000Z,53.96
2023-04-20T23:02:36.000Z,51.92
2023-04-20T23:07:35.000Z,51.83
2023-04-20T23:12:36.000Z,52.29
2023-04-20T23:17:36.000Z,53.2
2023-04-20T23:22:35.000Z,54.22
2023-04-20T23:27:35.000Z,55.91
2023-04-20T23:32:35.000Z,55.9
2023-04-20T23:37:35.000Z,55.9
2023-04-20T23:42:36.000Z,54.59
2023-04-20T23:47:35.000Z,53.81
2023-04-20T23:52:35.000Z,54.2
2023-04-20T23:57:35.000Z,55.09
